createdAt,value
2022-10-28T00:02:26.495Z,3.87
2022-10-28T00:05:36.038Z,3.70
2022-10-28T00:08:44.767Z,4.00
2022-10-28T00:11:53.021Z,4.07
2022-10-28T00:15:02.772Z,4.10
2022-10-28T00:18:11.380Z,4.10
2022-10-28T00:21:22.082Z,3.87
2022-10-28T00:24:30.411Z,4.70
2022-10-28T00:27:38.687Z,4.60
2022-10-28T00:30:48.428Z,4.87
2022-10-28T00:33:57.654Z,4.70
2022-10-28T00:37:06.002Z,5.90
2022-10-28T00:40:14.357Z,5.60
2022-10-28T00:43:35.615Z,5.27
2022-10-28T00:46:48.637Z,5.47
2022-10-28T00:50:01.411Z,5.80
2022-10-28T00:53:14.220Z,5.40
2022-10-28T00:56:23.931Z,5.37
2022-10-28T00:59:36.210Z,5.40
2022-10-28T01:02:48.903Z,5.10
2022-10-28T01:05:58.162Z,5.07
2022-10-28T01:09:06.588Z,5.40
2022-10-28T01:12:24.369Z,4.70
2022-10-28T01:15:44.384Z,5.33
2022-10-28T01:19:06.550Z,5.30
2022-10-28T01:22:21.663Z,5.00
2022-10-28T01:25:47.883Z,4.80
2022-10-28T01:29:36.366Z,5.37
2022-10-28T01:33:02.617Z,5.80
2022-10-28T01:36:16.548Z,5.37
2022-10-28T01:39:32.491Z,6.13
2022-10-28T01:42:45.748Z,5.33
2022-10-28T01:46:00.466Z,5.30
2022-10-28T01:49:14.681Z,5.43
2022-10-28T01:52:26.900Z,5.77
2022-10-28T01:55:39.407Z,5.67
2022-10-28T01:58:49.099Z,5.00
2022-10-28T02:01:58.039Z,5.20
2022-10-28T02:05:38.174Z,5.53
2022-10-28T02:08:58.753Z,5.50
2022-10-28T02:12:29.375Z,5.30
2022-10-28T02:15:44.097Z,5.33
2022-10-28T02:19:02.971Z,5.67
2022-10-28T02:22:20.031Z,5.33
2022-10-28T02:25:33.679Z,5.33
2022-10-28T02:28:50.896Z,5.50
2022-10-28T02:32:04.295Z,5.53
2022-10-28T02:35:16.743Z,5.30
2022-10-28T02:38:31.489Z,5.50
2022-10-28T02:41:45.489Z,4.67
2022-10-28T02:44:59.831Z,4.90
2022-10-28T02:48:12.233Z,4.90
2022-10-28T02:51:26.168Z,5.60
2022-10-28T02:54:40.639Z,5.50
2022-10-28T02:57:49.912Z,5.30
2022-10-28T03:00:58.373Z,5.20
2022-10-28T03:04:07.581Z,4.80
2022-10-28T03:07:15.871Z,5.40
2022-10-28T03:10:25.560Z,4.97
2022-10-28T03:13:33.942Z,4.90
2022-10-28T03:16:42.265Z,4.53
2022-10-28T03:19:50.539Z,4.63
2022-10-28T03:22:58.875Z,4.40
2022-10-28T03:26:08.660Z,4.20
2022-10-28T03:29:17.021Z,4.40
2022-10-28T03:32:25.466Z,4.27
2022-10-28T03:35:33.768Z,5.03
2022-10-28T03:38:42.087Z,4.70
2022-10-28T03:41:51.750Z,4.23
2022-10-28T03:45:00.131Z,4.90
2022-10-28T03:48:08.484Z,4.83
2022-10-28T03:51:16.927Z,5.30
2022-10-28T03:54:25.210Z,4.37
2022-10-28T03:57:35.024Z,5.10
2022-10-28T04:00:43.310Z,4.67
2022-10-28T04:03:51.568Z,5.27
2022-10-28T04:06:59.906Z,4.97
2022-10-28T04:10:08.606Z,5.40
2022-10-28T04:13:18.686Z,5.03
2022-10-28T04:16:27.254Z,5.10
2022-10-28T04:19:35.681Z,5.50
2022-10-28T04:22:44.022Z,4.57
2022-10-28T04:25:54.381Z,4.20
2022-10-28T04:29:04.319Z,5.20
2022-10-28T04:32:12.635Z,4.80
2022-10-28T04:35:20.964Z,4.73
2022-10-28T04:38:29.260Z,5.00
2022-10-28T04:41:37.660Z,5.20
2022-10-28T04:44:47.408Z,4.60
2022-10-28T04:47:58.679Z,5.00
2022-10-28T04:51:07.393Z,4.93
2022-10-28T04:54:15.706Z,4.90
2022-10-28T04:57:24.015Z,4.73
2022-10-28T05:00:33.761Z,5.00
2022-10-28T05:03:42.059Z,4.80
2022-10-28T05:06:50.381Z,4.07
2022-10-28T05:09:58.688Z,4.97
2022-10-28T05:13:07.027Z,5.17
2022-10-28T05:16:16.738Z,5.40
2022-10-28T05:19:25.076Z,4.63
2022-10-28T05:22:33.412Z,4.73
2022-10-28T05:25:43.736Z,4.33
2022-10-28T05:28:52.026Z,4.80
2022-10-28T05:32:02.101Z,5.47
2022-10-28T05:35:11.329Z,5.33
2022-10-28T05:38:19.722Z,5.27
2022-10-28T05:41:28.055Z,5.63
2022-10-28T05:44:36.373Z,5.17
2022-10-28T05:47:47.032Z,4.80
2022-10-28T05:50:55.373Z,5.30
2022-10-28T05:54:03.803Z,4.83
2022-10-28T05:57:12.225Z,4.43
2022-10-28T06:00:22.046Z,4.77
2022-10-28T06:03:31.812Z,4.20
2022-10-28T06:06:40.273Z,4.20
2022-10-28T06:09:48.610Z,4.10
2022-10-28T06:12:55.624Z,3.90
2022-10-28T06:16:04.346Z,3.53
2022-10-28T06:19:14.055Z,3.73
2022-10-28T06:22:22.755Z,3.40
2022-10-28T06:25:31.125Z,3.20
2022-10-28T06:28:39.519Z,3.03
2022-10-28T06:31:47.767Z,3.30
2022-10-28T06:34:57.430Z,2.93
2022-10-28T06:38:08.574Z,3.23
2022-10-28T06:41:17.811Z,2.70
2022-10-28T06:44:26.147Z,3.07
2022-10-28T06:47:40.619Z,3.27
2022-10-28T06:50:51.386Z,3.00
2022-10-28T06:53:59.893Z,3.20
2022-10-28T06:57:08.242Z,3.00
2022-10-28T07:00:17.545Z,3.00
2022-10-28T07:03:25.845Z,2.90
2022-10-28T07:06:35.657Z,2.70
2022-10-28T07:09:45.080Z,2.87
2022-10-28T07:12:54.513Z,3.00
2022-10-28T07:16:03.264Z,3.17
2022-10-28T07:19:11.654Z,2.83
2022-10-28T07:22:25.331Z,2.70
2022-10-28T07:25:33.993Z,3.90
2022-10-28T07:28:42.952Z,3.23
2022-10-28T07:31:51.231Z,3.30
2022-10-28T07:34:59.507Z,2.90
2022-10-28T07:38:09.254Z,3.37
2022-10-28T07:41:17.732Z,3.37
2022-10-28T07:44:26.176Z,3.60
2022-10-28T07:47:34.547Z,3.03
2022-10-28T07:50:42.974Z,3.33
2022-10-28T07:53:52.766Z,3.27
2022-10-28T07:57:01.079Z,3.30
2022-10-28T08:00:10.382Z,2.80
2022-10-28T08:03:21.328Z,2.70
2022-10-28T08:06:29.635Z,3.17
2022-10-28T08:09:39.349Z,3.00
2022-10-28T08:12:47.647Z,2.87
2022-10-28T08:15:56.527Z,3.10
2022-10-28T08:19:07.716Z,2.70
2022-10-28T08:22:16.306Z,2.93
2022-10-28T08:25:26.220Z,2.93
2022-10-28T08:28:34.569Z,3.20
2022-10-28T08:31:43.368Z,2.83
2022-10-28T08:34:51.713Z,3.00
2022-10-28T08:38:00.086Z,2.90
2022-10-28T08:41:32.573Z,2.97
2022-10-28T08:45:05.100Z,3.17
2022-10-28T08:48:22.535Z,2.60
2022-10-28T08:51:38.173Z,2.70
2022-10-28T08:54:52.453Z,2.57
2022-10-28T08:58:08.859Z,2.50
2022-10-28T09:01:22.601Z,2.30
2022-10-28T09:04:40.096Z,2.00
2022-10-28T09:07:48.712Z,2.27
2022-10-28T09:11:31.361Z,2.17
2022-10-28T09:14:54.041Z,2.20
2022-10-28T09:18:11.236Z,2.00
2022-10-28T09:21:22.337Z,2.07
2022-10-28T09:24:39.770Z,2.10
2022-10-28T09:27:59.568Z,2.13
2022-10-28T09:31:16.833Z,2.10
2022-10-28T09:34:32.453Z,2.10
2022-10-28T09:37:45.430Z,2.33
2022-10-28T09:40:57.750Z,2.10
2022-10-28T09:44:14.958Z,2.20
2022-10-28T09:47:28.252Z,1.93
2022-10-28T09:50:36.678Z,1.67
2022-10-28T09:53:49.522Z,2.00
2022-10-28T09:56:58.034Z,2.00
2022-10-28T10:00:07.868Z,1.87
2022-10-28T10:03:19.085Z,1.60
2022-10-28T10:06:30.600Z,2.23
2022-10-28T10:09:40.014Z,1.70
2022-10-28T10:12:52.399Z,1.80
2022-10-28T10:16:06.028Z,1.83
2022-10-28T10:19:15.856Z,1.80
2022-10-28T10:22:31.670Z,1.50
2022-10-28T10:25:40.115Z,1.60
2022-10-28T10:28:50.399Z,1.80
2022-10-28T10:32:16.269Z,1.60
2022-10-28T10:35:28.541Z,1.70
2022-10-28T10:38:37.465Z,1.80
2022-10-28T10:41:46.601Z,1.67
2022-10-28T10:45:02.679Z,1.40
2022-10-28T10:48:15.934Z,1.60
2022-10-28T10:51:30.066Z,1.50
2022-10-28T10:54:39.316Z,1.50
2022-10-28T10:57:48.906Z,1.60
2022-10-28T11:00:59.694Z,1.73
2022-10-28T11:04:09.674Z,1.70
2022-10-28T11:07:19.545Z,1.73
2022-10-28T11:10:29.890Z,1.83
2022-10-28T11:13:45.139Z,2.03
2022-10-28T11:16:56.217Z,1.93
2022-10-28T11:20:25.064Z,2.00
2022-10-28T11:23:46.156Z,2.37
2022-10-28T11:27:02.793Z,2.00
2022-10-28T11:30:16.012Z,2.27
2022-10-28T11:33:35.611Z,2.20
2022-10-28T11:36:53.096Z,2.33
2022-10-28T11:40:16.858Z,2.87
2022-10-28T11:43:35.945Z,2.47
2022-10-28T11:46:53.627Z,2.03
2022-10-28T11:50:20.810Z,2.40
2022-10-28T11:53:51.757Z,2.23
2022-10-28T11:57:07.021Z,2.37
2022-10-28T12:00:32.259Z,2.40
2022-10-28T12:04:05.010Z,2.60
2022-10-28T12:07:35.332Z,2.63
2022-10-28T12:10:59.820Z,2.43
2022-10-28T12:14:22.191Z,2.40
2022-10-28T12:17:38.417Z,2.47
2022-10-28T12:20:54.059Z,2.30
2022-10-28T12:24:04.577Z,2.13
2022-10-28T12:27:18.321Z,2.40
2022-10-28T12:30:30.514Z,2.60
2022-10-28T12:33:45.057Z,2.43
2022-10-28T12:36:59.948Z,2.40
2022-10-28T12:40:15.290Z,2.80
2022-10-28T12:43:28.290Z,2.73
2022-10-28T12:50:06.910Z,2.90
2022-10-28T12:53:32.969Z,3.10
2022-10-28T12:56:49.118Z,3.00
2022-10-28T13:00:04.668Z,3.60
2022-10-28T13:03:16.782Z,3.90
2022-10-28T13:07:00.691Z,4.20
2022-10-28T13:10:20.214Z,3.50
2022-10-28T13:13:39.777Z,3.03
2022-10-28T13:17:27.930Z,3.00
2022-10-28T13:20:48.530Z,3.07
2022-10-28T13:24:05.523Z,3.00
2022-10-28T13:27:15.300Z,2.83
2022-10-28T13:30:24.102Z,2.80
2022-10-28T13:33:35.418Z,2.43
2022-10-28T13:36:47.174Z,2.97
2022-10-28T13:39:55.542Z,2.80
2022-10-28T13:43:03.982Z,2.80
2022-10-28T13:46:12.293Z,2.60
2022-10-28T13:49:25.651Z,2.37
2022-10-28T13:52:36.405Z,2.83
2022-10-28T13:55:45.702Z,2.70
2022-10-28T13:58:56.087Z,2.50
2022-10-28T14:02:33.734Z,2.80
2022-10-28T14:05:56.019Z,2.77
2022-10-28T14:09:06.725Z,2.50
2022-10-28T14:12:23.836Z,3.13
2022-10-28T14:15:35.031Z,2.43
2022-10-28T14:18:45.324Z,2.40
2022-10-28T14:22:02.482Z,2.27
2022-10-28T14:26:00.910Z,2.43
2022-10-28T14:29:29.024Z,2.83
2022-10-28T14:32:44.565Z,2.37
2022-10-28T14:36:15.309Z,2.37
2022-10-28T14:39:37.250Z,2.73
2022-10-28T14:43:00.556Z,2.73
2022-10-28T14:46:20.218Z,2.73
2022-10-28T14:49:31.335Z,2.80
2022-10-28T14:52:39.859Z,2.70
2022-10-28T14:55:53.010Z,2.97
2022-10-28T14:59:24.267Z,2.77
2022-10-28T15:02:34.472Z,2.80
2022-10-28T15:05:43.051Z,2.70
2022-10-28T15:08:51.875Z,3.30
2022-10-28T15:12:03.903Z,2.80
2022-10-28T15:15:22.502Z,3.23
2022-10-28T15:18:30.816Z,3.53
2022-10-28T15:21:39.149Z,3.30
2022-10-28T15:24:57.946Z,3.63
2022-10-28T15:28:06.353Z,3.63
2022-10-28T15:31:18.209Z,4.10
2022-10-28T15:34:30.313Z,4.43
2022-10-28T15:37:39.554Z,4.63
2022-10-28T15:40:47.960Z,4.13
2022-10-28T15:43:57.854Z,4.10
2022-10-28T15:47:20.207Z,3.90
2022-10-28T15:50:31.349Z,4.67
2022-10-28T15:53:41.121Z,4.30
2022-10-28T15:56:57.956Z,4.27
2022-10-28T16:00:20.886Z,4.37
2022-10-28T16:03:43.337Z,4.70
2022-10-28T16:06:53.325Z,4.57
2022-10-28T16:10:01.893Z,4.93
2022-10-28T16:13:19.822Z,5.20
2022-10-28T16:16:30.417Z,4.70
2022-10-28T16:19:43.773Z,4.50
2022-10-28T16:22:52.329Z,4.47
2022-10-28T16:26:00.639Z,4.40
2022-10-28T16:29:08.992Z,4.50
2022-10-28T16:32:18.866Z,4.50
2022-10-28T16:35:29.284Z,5.27
2022-10-28T16:38:38.235Z,4.63
2022-10-28T16:41:46.700Z,4.50
2022-10-28T16:44:54.998Z,4.60
2022-10-28T16:48:03.292Z,4.53
2022-10-28T16:51:17.658Z,4.60
2022-10-28T16:54:26.916Z,4.87
2022-10-28T16:57:35.160Z,5.63
2022-10-28T17:00:44.025Z,5.57
2022-10-28T17:03:52.432Z,6.47
2022-10-28T17:07:02.181Z,6.90
2022-10-28T17:10:12.627Z,6.97
2022-10-28T17:13:20.894Z,5.70
2022-10-28T17:16:29.197Z,5.27
2022-10-28T17:19:37.707Z,4.60
2022-10-28T17:22:48.216Z,5.17
2022-10-28T17:26:00.128Z,4.30
2022-10-28T17:29:10.463Z,3.97
2022-10-28T17:32:19.291Z,3.80
2022-10-28T17:35:27.751Z,3.00
2022-10-28T17:38:37.594Z,3.77
2022-10-28T17:41:45.878Z,3.10
2022-10-28T17:44:54.194Z,3.33
2022-10-28T17:48:02.524Z,3.63
2022-10-28T17:51:10.952Z,4.13
2022-10-28T17:54:20.675Z,4.77
2022-10-28T17:57:29.041Z,5.40
2022-10-28T18:00:37.440Z,6.60
2022-10-28T18:03:45.763Z,6.40
2022-10-28T18:06:55.309Z,6.27
2022-10-28T18:10:05.475Z,7.77
2022-10-28T18:13:13.879Z,9.00
2022-10-28T18:16:24.400Z,9.70
2022-10-28T18:19:32.905Z,10.10
2022-10-28T18:22:41.270Z,10.57
2022-10-28T18:25:59.465Z,10.87
2022-10-28T18:29:10.164Z,10.67
2022-10-28T18:32:18.533Z,10.53
2022-10-28T18:35:27.011Z,11.20
2022-10-28T18:38:35.717Z,10.77
2022-10-28T18:41:45.383Z,10.17
2022-10-28T18:44:58.479Z,9.90
2022-10-28T18:48:07.283Z,11.07
2022-10-28T18:51:15.808Z,9.83
2022-10-28T18:54:24.092Z,9.17
2022-10-28T18:57:33.831Z,9.93
2022-10-28T19:00:42.374Z,8.50
2022-10-28T19:03:53.970Z,8.30
2022-10-28T19:07:02.318Z,9.23
2022-10-28T19:10:11.291Z,7.60
2022-10-28T19:13:20.964Z,8.10
2022-10-28T19:16:29.875Z,7.50
2022-10-28T19:19:39.329Z,7.33
2022-10-28T19:22:47.953Z,6.57
2022-10-28T19:25:56.760Z,6.93
2022-10-28T19:29:06.896Z,6.20
2022-10-28T19:32:15.205Z,6.37
2022-10-28T19:35:23.502Z,5.47
2022-10-28T19:38:33.330Z,6.30
2022-10-28T19:41:41.744Z,5.93
2022-10-28T19:44:51.513Z,6.13
2022-10-28T19:48:02.224Z,6.50
2022-10-28T19:51:13.247Z,6.70
2022-10-28T19:54:21.558Z,6.17
2022-10-28T19:57:29.837Z,6.57
2022-10-28T20:00:39.513Z,6.47
2022-10-28T20:03:49.402Z,6.70
2022-10-28T20:07:00.032Z,6.37
2022-10-28T20:10:09.867Z,7.23
2022-10-28T20:13:18.263Z,6.80
2022-10-28T20:16:28.736Z,6.90
2022-10-28T20:19:37.021Z,6.77
2022-10-28T20:22:45.320Z,6.50
2022-10-28T20:25:54.245Z,7.63
2022-10-28T20:29:03.069Z,6.63
2022-10-28T20:32:12.758Z,6.97
2022-10-28T20:35:21.043Z,7.07
2022-10-28T20:38:30.187Z,6.57
2022-10-28T20:41:39.806Z,7.33
2022-10-28T20:44:48.105Z,7.23
2022-10-28T20:47:57.775Z,6.90
2022-10-28T20:51:06.212Z,6.97
2022-10-28T20:54:14.472Z,7.83
2022-10-28T20:57:22.818Z,8.47
2022-10-28T21:00:31.174Z,8.23
2022-10-28T21:03:41.321Z,8.27
2022-10-28T21:06:49.718Z,8.63
2022-10-28T21:09:58.310Z,8.50
2022-10-28T21:13:07.369Z,8.20
2022-10-28T21:16:15.811Z,8.87
2022-10-28T21:19:26.218Z,8.67
2022-10-28T21:22:34.684Z,8.80
2022-10-28T21:25:42.961Z,9.40
2022-10-28T21:28:52.010Z,8.63
2022-10-28T21:32:00.445Z,7.93
2022-10-28T21:35:11.004Z,8.63
2022-10-28T21:38:19.329Z,9.30
2022-10-28T21:41:27.614Z,8.87
2022-10-28T21:44:35.892Z,8.57
2022-10-28T21:47:44.311Z,8.37
2022-10-28T21:50:54.952Z,8.13
2022-10-28T21:54:03.247Z,8.67
2022-10-28T21:57:11.768Z,8.50
2022-10-28T22:00:20.345Z,8.77
2022-10-28T22:03:28.645Z,7.90
2022-10-28T22:06:38.452Z,8.23
2022-10-28T22:09:46.877Z,8.50
2022-10-28T22:12:56.169Z,8.50
2022-10-28T22:16:06.605Z,8.33
2022-10-28T22:19:15.512Z,8.87
2022-10-28T22:22:26.074Z,9.10
2022-10-28T22:25:34.407Z,8.70
2022-10-28T22:28:42.873Z,9.43
2022-10-28T22:31:51.146Z,8.17
2022-10-28T22:34:59.492Z,9.33
2022-10-28T22:38:09.230Z,8.77
2022-10-28T22:41:19.035Z,9.30
2022-10-28T22:44:27.299Z,9.27
2022-10-28T22:47:35.716Z,8.77
2022-10-28T22:50:44.035Z,9.77
2022-10-28T22:53:53.697Z,10.73
2022-10-28T22:57:02.076Z,9.87
2022-10-28T23:00:11.774Z,10.60
2022-10-28T23:03:20.509Z,9.70
2022-10-28T23:06:30.262Z,10.07
2022-10-28T23:09:40.225Z,10.03
2022-10-28T23:12:48.550Z,10.07
2022-10-28T23:15:56.835Z,9.13
2022-10-28T23:19:05.177Z,9.93
2022-10-28T23:22:13.455Z,9.13
2022-10-28T23:25:23.151Z,9.90
2022-10-28T23:28:31.509Z,10.07
2022-10-28T23:31:39.804Z,10.77
2022-10-28T23:34:48.115Z,11.17
2022-10-28T23:37:56.916Z,10.93
2022-10-28T23:41:08.464Z,10.63
2022-10-28T23:44:17.049Z,11.03
2022-10-28T23:47:25.317Z,10.77
2022-10-28T23:50:33.581Z,11.00
2022-10-28T23:53:41.961Z,10.53
2022-10-28T23:56:51.968Z,9.33
